sensor_id;sensor_type;location;lat;lon;timestamp;temperature;humidity
13440;DHT22;6792;57.698;11.946;2023-07-22T00:00:14;21.70;46.20
13440;DHT22;6792;57.698;11.946;2023-07-22T00:02:43;21.70;46.30
13440;DHT22;6792;57.698;11.946;2023-07-22T00:05:12;21.60;46.30
13440;DHT22;6792;57.698;11.946;2023-07-22T00:07:42;21.60;45.80
13440;DHT22;6792;57.698;11.946;2023-07-22T00:10:11;21.60;46.40
13440;DHT22;6792;57.698;11.946;2023-07-22T00:12:41;21.60;46.40
13440;DHT22;6792;57.698;11.946;2023-07-22T00:15:10;21.60;46.40
13440;DHT22;6792;57.698;11.946;2023-07-22T00:17:40;21.60;46.50
13440;DHT22;6792;57.698;11.946;2023-07-22T00:20:11;21.60;46.50
13440;DHT22;6792;57.698;11.946;2023-07-22T00:22:41;21.60;46.50
13440;DHT22;6792;57.698;11.946;2023-07-22T00:25:11;21.60;46.60
13440;DHT22;6792;57.698;11.946;2023-07-22T00:27:41;21.60;46.60
13440;DHT22;6792;57.698;11.946;2023-07-22T00:30:12;21.50;46.60
13440;DHT22;6792;57.698;11.946;2023-07-22T00:32:42;21.50;46.70
13440;DHT22;6792;57.698;11.946;2023-07-22T00:35:11;21.50;46.70
13440;DHT22;6792;57.698;11.946;2023-07-22T00:37:40;21.50;46.80
13440;DHT22;6792;57.698;11.946;2023-07-22T00:40:12;21.40;46.80
13440;DHT22;6792;57.698;11.946;2023-07-22T00:42:41;21.40;46.80
13440;DHT22;6792;57.698;11.946;2023-07-22T00:45:11;21.40;46.80
13440;DHT22;6792;57.698;11.946;2023-07-22T00:47:40;21.40;46.80
13440;DHT22;6792;57.698;11.946;2023-07-22T00:50:10;21.40;46.80
13440;DHT22;6792;57.698;11.946;2023-07-22T00:52:40;21.40;46.80
13440;DHT22;6792;57.698;11.946;2023-07-22T00:55:10;21.40;46.80
13440;DHT22;6792;57.698;11.946;2023-07-22T00:57:39;21.40;46.80
13440;DHT22;6792;57.698;11.946;2023-07-22T01:00:10;21.40;47.40
13440;DHT22;6792;57.698;11.946;2023-07-22T01:02:41;21.40;46.90
13440;DHT22;6792;57.698;11.946;2023-07-22T01:05:13;21.40;46.90
13440;DHT22;6792;57.698;11.946;2023-07-22T01:07:43;21.40;46.90
13440;DHT22;6792;57.698;11.946;2023-07-22T01:10:13;21.40;47.00
13440;DHT22;6792;57.698;11.946;2023-07-22T01:12:44;21.40;47.00
13440;DHT22;6792;57.698;11.946;2023-07-22T01:15:13;21.40;47.00
13440;DHT22;6792;57.698;11.946;2023-07-22T01:17:42;21.40;47.00
13440;DHT22;6792;57.698;11.946;2023-07-22T01:20:13;21.40;47.00
13440;DHT22;6792;57.698;11.946;2023-07-22T01:22:51;21.30;46.50
13440;DHT22;6792;57.698;11.946;2023-07-22T01:25:22;21.30;47.10
13440;DHT22;6792;57.698;11.946;2023-07-22T01:27:52;21.30;47.00
13440;DHT22;6792;57.698;11.946;2023-07-22T01:30:21;21.30;47.10
13440;DHT22;6792;57.698;11.946;2023-07-22T01:32:53;21.30;47.10
13440;DHT22;6792;57.698;11.946;2023-07-22T01:35:22;21.20;47.10
13440;DHT22;6792;57.698;11.946;2023-07-22T01:37:51;21.30;47.20
13440;DHT22;6792;57.698;11.946;2023-07-22T01:40:21;21.20;46.60
13440;DHT22;6792;57.698;11.946;2023-07-22T01:42:51;21.20;47.20
13440;DHT22;6792;57.698;11.946;2023-07-22T01:45:21;21.20;47.20
13440;DHT22;6792;57.698;11.946;2023-07-22T01:47:50;21.20;47.30
13440;DHT22;6792;57.698;11.946;2023-07-22T01:50:19;21.20;47.20
13440;DHT22;6792;57.698;11.946;2023-07-22T01:52:48;21.20;47.30
13440;DHT22;6792;57.698;11.946;2023-07-22T01:55:20;21.20;47.30
13440;DHT22;6792;57.698;11.946;2023-07-22T01:57:50;21.20;47.20
13440;DHT22;6792;57.698;11.946;2023-07-22T02:00:20;21.30;47.30
13440;DHT22;6792;57.698;11.946;2023-07-22T02:02:49;21.30;47.30
13440;DHT22;6792;57.698;11.946;2023-07-22T02:05:19;21.30;47.30
13440;DHT22;6792;57.698;11.946;2023-07-22T02:07:48;21.30;47.30
13440;DHT22;6792;57.698;11.946;2023-07-22T02:10:22;21.30;47.30
13440;DHT22;6792;57.698;11.946;2023-07-22T02:12:51;21.40;47.30
13440;DHT22;6792;57.698;11.946;2023-07-22T02:15:21;21.40;47.30
13440;DHT22;6792;57.698;11.946;2023-07-22T02:17:52;21.30;46.60
13440;DHT22;6792;57.698;11.946;2023-07-22T02:20:23;21.30;47.20
13440;DHT22;6792;57.698;11.946;2023-07-22T02:22:54;21.30;47.30
13440;DHT22;6792;57.698;11.946;2023-07-22T02:25:23;21.30;47.30
13440;DHT22;6792;57.698;11.946;2023-07-22T02:27:52;21.30;47.30
13440;DHT22;6792;57.698;11.946;2023-07-22T02:30:21;21.30;47.40
13440;DHT22;6792;57.698;11.946;2023-07-22T02:32:50;21.30;47.40
13440;DHT22;6792;57.698;11.946;2023-07-22T02:35:22;21.40;47.40
13440;DHT22;6792;57.698;11.946;2023-07-22T02:37:52;21.40;47.40
13440;DHT22;6792;57.698;11.946;2023-07-22T02:40:24;21.30;47.40
13440;DHT22;6792;57.698;11.946;2023-07-22T02:42:53;21.30;46.90
13440;DHT22;6792;57.698;11.946;2023-07-22T02:45:22;21.30;47.50
13440;DHT22;6792;57.698;11.946;2023-07-22T02:47:51;21.30;47.50
13440;DHT22;6792;57.698;11.946;2023-07-22T02:50:21;21.40;47.50
13440;DHT22;6792;57.698;11.946;2023-07-22T02:52:51;21.30;47.40
13440;DHT22;6792;57.698;11.946;2023-07-22T02:55:20;21.30;47.40
13440;DHT22;6792;57.698;11.946;2023-07-22T02:57:52;21.40;47.40
13440;DHT22;6792;57.698;11.946;2023-07-22T03:00:21;21.30;46.80
13440;DHT22;6792;57.698;11.946;2023-07-22T03:02:52;21.40;47.30
13440;DHT22;6792;57.698;11.946;2023-07-22T03:05:23;21.40;47.20
13440;DHT22;6792;57.698;11.946;2023-07-22T03:08:06;21.40;47.20
13440;DHT22;6792;57.698;11.946;2023-07-22T03:10:35;21.30;46.60
13440;DHT22;6792;57.698;11.946;2023-07-22T03:13:04;21.30;46.50
13440;DHT22;6792;57.698;11.946;2023-07-22T03:15:35;21.30;47.10
13440;DHT22;6792;57.698;11.946;2023-07-22T03:18:04;21.20;46.40
13440;DHT22;6792;57.698;11.946;2023-07-22T03:20:34;21.30;47.00
13440;DHT22;6792;57.698;11.946;2023-07-22T03:23:04;21.30;46.50
13440;DHT22;6792;57.698;11.946;2023-07-22T03:25:34;21.40;47.00
13440;DHT22;6792;57.698;11.946;2023-07-22T03:28:05;21.40;46.90
13440;DHT22;6792;57.698;11.946;2023-07-22T03:30:35;21.40;46.30
13440;DHT22;6792;57.698;11.946;2023-07-22T03:33:04;21.40;46.90
13440;DHT22;6792;57.698;11.946;2023-07-22T03:35:35;21.50;47.00
13440;DHT22;6792;57.698;11.946;2023-07-22T03:38:04;21.40;46.40
13440;DHT22;6792;57.698;11.946;2023-07-22T03:40:33;21.40;46.90
13440;DHT22;6792;57.698;11.946;2023-07-22T03:43:03;21.40;47.00
13440;DHT22;6792;57.698;11.946;2023-07-22T03:45:32;21.40;46.40
13440;DHT22;6792;57.698;11.946;2023-07-22T03:48:01;21.40;47.00
13440;DHT22;6792;57.698;11.946;2023-07-22T03:50:31;21.40;47.00
13440;DHT22;6792;57.698;11.946;2023-07-22T03:53:00;21.40;47.00
13440;DHT22;6792;57.698;11.946;2023-07-22T03:55:29;21.40;47.00
13440;DHT22;6792;57.698;11.946;2023-07-22T03:57:58;21.40;46.50
13440;DHT22;6792;57.698;11.946;2023-07-22T04:00:27;21.40;47.20
13440;DHT22;6792;57.698;11.946;2023-07-22T04:02:56;21.40;46.50
13440;DHT22;6792;57.698;11.946;2023-07-22T04:05:26;21.50;47.10
13440;DHT22;6792;57.698;11.946;2023-07-22T04:07:55;21.50;47.20
13440;DHT22;6792;57.698;11.946;2023-07-22T04:10:24;21.40;47.10
13440;DHT22;6792;57.698;11.946;2023-07-22T04:12:53;21.50;46.70
13440;DHT22;6792;57.698;11.946;2023-07-22T04:15:22;21.50;47.20
13440;DHT22;6792;57.698;11.946;2023-07-22T04:17:52;21.50;47.20
13440;DHT22;6792;57.698;11.946;2023-07-22T04:20:21;21.50;47.20
13440;DHT22;6792;57.698;11.946;2023-07-22T04:22:52;21.50;47.20
13440;DHT22;6792;57.698;11.946;2023-07-22T04:25:21;21.50;47.20
13440;DHT22;6792;57.698;11.946;2023-07-22T04:27:50;21.60;47.20
13440;DHT22;6792;57.698;11.946;2023-07-22T04:30:20;21.60;47.20
13440;DHT22;6792;57.698;11.946;2023-07-22T04:32:49;21.60;47.10
13440;DHT22;6792;57.698;11.946;2023-07-22T04:35:19;21.60;47.00
13440;DHT22;6792;57.698;11.946;2023-07-22T04:37:49;21.60;47.00
13440;DHT22;6792;57.698;11.946;2023-07-22T04:40:18;21.60;47.00
13440;DHT22;6792;57.698;11.946;2023-07-22T04:42:48;21.60;47.00
13440;DHT22;6792;57.698;11.946;2023-07-22T04:45:18;21.60;47.00
13440;DHT22;6792;57.698;11.946;2023-07-22T04:47:48;21.60;46.90
13440;DHT22;6792;57.698;11.946;2023-07-22T04:50:21;21.60;46.90
13440;DHT22;6792;57.698;11.946;2023-07-22T04:52:53;21.60;46.90
13440;DHT22;6792;57.698;11.946;2023-07-22T04:55:22;21.60;46.80
13440;DHT22;6792;57.698;11.946;2023-07-22T04:57:52;21.60;46.90
13440;DHT22;6792;57.698;11.946;2023-07-22T05:00:22;21.50;46.80
13440;DHT22;6792;57.698;11.946;2023-07-22T05:02:51;21.50;46.90
13440;DHT22;6792;57.698;11.946;2023-07-22T05:05:25;21.50;46.30
13440;DHT22;6792;57.698;11.946;2023-07-22T05:07:54;21.50;46.90
13440;DHT22;6792;57.698;11.946;2023-07-22T05:10:23;21.50;46.90
13440;DHT22;6792;57.698;11.946;2023-07-22T05:12:52;21.50;46.90
13440;DHT22;6792;57.698;11.946;2023-07-22T05:15:22;21.50;46.90
13440;DHT22;6792;57.698;11.946;2023-07-22T05:17:54;21.50;47.00
13440;DHT22;6792;57.698;11.946;2023-07-22T05:20:23;21.40;46.40
13440;DHT22;6792;57.698;11.946;2023-07-22T05:22:53;21.40;47.10
13440;DHT22;6792;57.698;11.946;2023-07-22T05:25:22;21.40;46.50
13440;DHT22;6792;57.698;11.946;2023-07-22T05:27:53;21.40;47.20
13440;DHT22;6792;57.698;11.946;2023-07-22T05:30:22;21.40;47.20
13440;DHT22;6792;57.698;11.946;2023-07-22T05:32:53;21.40;47.20
13440;DHT22;6792;57.698;11.946;2023-07-22T05:35:22;21.40;47.30
13440;DHT22;6792;57.698;11.946;2023-07-22T05:37:51;21.40;47.30
13440;DHT22;6792;57.698;11.946;2023-07-22T05:40:21;21.40;47.30
13440;DHT22;6792;57.698;11.946;2023-07-22T05:42:50;21.40;47.20
13440;DHT22;6792;57.698;11.946;2023-07-22T05:45:22;21.50;47.30
13440;DHT22;6792;57.698;11.946;2023-07-22T05:47:51;21.60;47.20
13440;DHT22;6792;57.698;11.946;2023-07-22T05:50:20;21.70;47.20
13440;DHT22;6792;57.698;11.946;2023-07-22T05:52:50;21.80;47.00
13440;DHT22;6792;57.698;11.946;2023-07-22T05:55:20;21.80;46.80
13440;DHT22;6792;57.698;11.946;2023-07-22T05:57:52;21.90;46.70
13440;DHT22;6792;57.698;11.946;2023-07-22T06:00:24;21.90;46.00
13440;DHT22;6792;57.698;11.946;2023-07-22T06:05:21;21.80;45.90
13440;DHT22;6792;57.698;11.946;2023-07-22T06:07:51;21.80;46.00
13440;DHT22;6792;57.698;11.946;2023-07-22T06:10:23;21.90;46.60
13440;DHT22;6792;57.698;11.946;2023-07-22T06:12:52;21.90;47.20
13440;DHT22;6792;57.698;11.946;2023-07-22T06:15:21;21.90;46.70
13440;DHT22;6792;57.698;11.946;2023-07-22T06:17:51;21.90;46.70
13440;DHT22;6792;57.698;11.946;2023-07-22T06:20:20;22.00;47.10
13440;DHT22;6792;57.698;11.946;2023-07-22T06:22:52;22.00;46.80
13440;DHT22;6792;57.698;11.946;2023-07-22T06:25:21;22.00;46.70
13440;DHT22;6792;57.698;11.946;2023-07-22T06:27:52;22.10;46.60
13440;DHT22;6792;57.698;11.946;2023-07-22T06:30:22;22.10;46.60
13440;DHT22;6792;57.698;11.946;2023-07-22T06:32:51;22.00;46.40
13440;DHT22;6792;57.698;11.946;2023-07-22T06:35:21;22.00;46.30
13440;DHT22;6792;57.698;11.946;2023-07-22T06:37:52;22.00;46.40
13440;DHT22;6792;57.698;11.946;2023-07-22T06:40:21;21.90;46.40
13440;DHT22;6792;57.698;11.946;2023-07-22T06:42:51;21.90;46.50
13440;DHT22;6792;57.698;11.946;2023-07-22T06:45:20;21.80;46.30
13440;DHT22;6792;57.698;11.946;2023-07-22T06:47:49;21.80;46.30
13440;DHT22;6792;57.698;11.946;2023-07-22T06:50:19;21.80;46.30
13440;DHT22;6792;57.698;11.946;2023-07-22T06:52:48;21.80;45.60
13440;DHT22;6792;57.698;11.946;2023-07-22T06:55:23;21.90;46.30
13440;DHT22;6792;57.698;11.946;2023-07-22T06:57:52;22.10;46.20
13440;DHT22;6792;57.698;11.946;2023-07-22T07:00:23;22.20;45.90
13440;DHT22;6792;57.698;11.946;2023-07-22T07:02:52;22.30;45.80
13440;DHT22;6792;57.698;11.946;2023-07-22T07:05:24;22.40;45.70
13440;DHT22;6792;57.698;11.946;2023-07-22T07:07:56;22.50;45.50
13440;DHT22;6792;57.698;11.946;2023-07-22T07:10:25;22.60;45.30
13440;DHT22;6792;57.698;11.946;2023-07-22T07:12:54;22.60;45.00
13440;DHT22;6792;57.698;11.946;2023-07-22T07:15:25;22.60;44.70
13440;DHT22;6792;57.698;11.946;2023-07-22T07:17:54;22.60;44.70
13440;DHT22;6792;57.698;11.946;2023-07-22T07:20:23;22.60;44.60
13440;DHT22;6792;57.698;11.946;2023-07-22T07:22:52;22.50;44.50
13440;DHT22;6792;57.698;11.946;2023-07-22T07:25:22;22.40;44.50
13440;DHT22;6792;57.698;11.946;2023-07-22T07:27:51;22.40;44.60
13440;DHT22;6792;57.698;11.946;2023-07-22T07:30:22;22.40;44.60
13440;DHT22;6792;57.698;11.946;2023-07-22T07:32:51;22.30;44.60
13440;DHT22;6792;57.698;11.946;2023-07-22T07:35:21;22.30;44.70
13440;DHT22;6792;57.698;11.946;2023-07-22T07:37:53;22.30;44.10
13440;DHT22;6792;57.698;11.946;2023-07-22T07:40:23;22.30;44.10
13440;DHT22;6792;57.698;11.946;2023-07-22T07:42:54;22.30;44.70
13440;DHT22;6792;57.698;11.946;2023-07-22T07:45:23;22.30;44.70
13440;DHT22;6792;57.698;11.946;2023-07-22T07:47:53;22.30;44.70
13440;DHT22;6792;57.698;11.946;2023-07-22T07:50:22;22.30;44.60
13440;DHT22;6792;57.698;11.946;2023-07-22T07:52:51;22.30;44.50
13440;DHT22;6792;57.698;11.946;2023-07-22T07:55:21;22.30;44.60
13440;DHT22;6792;57.698;11.946;2023-07-22T07:57:50;22.40;44.60
13440;DHT22;6792;57.698;11.946;2023-07-22T08:00:20;22.40;44.50
13440;DHT22;6792;57.698;11.946;2023-07-22T08:02:52;22.50;44.50
13440;DHT22;6792;57.698;11.946;2023-07-22T08:05:21;22.50;44.40
13440;DHT22;6792;57.698;11.946;2023-07-22T08:07:53;21.90;43.50
13440;DHT22;6792;57.698;11.946;2023-07-22T08:10:22;22.50;44.40
13440;DHT22;6792;57.698;11.946;2023-07-22T08:12:51;22.50;44.40
13440;DHT22;6792;57.698;11.946;2023-07-22T08:15:21;22.60;44.30
13440;DHT22;6792;57.698;11.946;2023-07-22T08:17:50;22.60;44.20
13440;DHT22;6792;57.698;11.946;2023-07-22T08:23:00;22.50;44.30
13440;DHT22;6792;57.698;11.946;2023-07-22T08:25:29;22.60;44.30
13440;DHT22;6792;57.698;11.946;2023-07-22T08:27:58;22.60;44.30
13440;DHT22;6792;57.698;11.946;2023-07-22T08:30:27;22.60;44.20
13440;DHT22;6792;57.698;11.946;2023-07-22T08:32:57;22.60;44.00
13440;DHT22;6792;57.698;11.946;2023-07-22T08:35:26;22.60;44.10
13440;DHT22;6792;57.698;11.946;2023-07-22T08:37:55;22.60;43.80
13440;DHT22;6792;57.698;11.946;2023-07-22T08:40:24;22.70;43.80
13440;DHT22;6792;57.698;11.946;2023-07-22T08:42:54;22.70;43.60
13440;DHT22;6792;57.698;11.946;2023-07-22T08:45:26;22.70;42.80
13440;DHT22;6792;57.698;11.946;2023-07-22T08:47:57;22.70;43.50
13440;DHT22;6792;57.698;11.946;2023-07-22T08:50:30;22.70;42.70
13440;DHT22;6792;57.698;11.946;2023-07-22T08:53:01;22.70;43.20
13440;DHT22;6792;57.698;11.946;2023-07-22T08:55:30;22.70;42.60
13440;DHT22;6792;57.698;11.946;2023-07-22T08:58:00;22.70;43.10
13440;DHT22;6792;57.698;11.946;2023-07-22T09:00:30;22.70;43.00
13440;DHT22;6792;57.698;11.946;2023-07-22T09:03:00;22.80;43.00
13440;DHT22;6792;57.698;11.946;2023-07-22T09:05:32;22.90;42.90
13440;DHT22;6792;57.698;11.946;2023-07-22T09:08:04;22.90;42.10
13440;DHT22;6792;57.698;11.946;2023-07-22T09:10:34;23.00;42.50
13440;DHT22;6792;57.698;11.946;2023-07-22T09:13:04;23.00;41.80
13440;DHT22;6792;57.698;11.946;2023-07-22T09:15:37;23.10;42.30
13440;DHT22;6792;57.698;11.946;2023-07-22T09:18:07;23.10;42.70
13440;DHT22;6792;57.698;11.946;2023-07-22T09:20:36;23.10;42.30
13440;DHT22;6792;57.698;11.946;2023-07-22T09:23:06;23.00;42.30
13440;DHT22;6792;57.698;11.946;2023-07-22T09:25:35;23.00;42.30
13440;DHT22;6792;57.698;11.946;2023-07-22T09:28:04;23.00;42.40
13440;DHT22;6792;57.698;11.946;2023-07-22T09:30:34;23.00;42.50
13440;DHT22;6792;57.698;11.946;2023-07-22T09:33:07;23.10;42.70
13440;DHT22;6792;57.698;11.946;2023-07-22T09:35:46;23.10;42.70
13440;DHT22;6792;57.698;11.946;2023-07-22T09:38:15;23.20;42.80
13440;DHT22;6792;57.698;11.946;2023-07-22T09:40:46;23.40;42.20
13440;DHT22;6792;57.698;11.946;2023-07-22T09:43:15;23.40;42.70
13440;DHT22;6792;57.698;11.946;2023-07-22T09:45:47;23.50;42.50
13440;DHT22;6792;57.698;11.946;2023-07-22T09:48:16;23.50;42.30
13440;DHT22;6792;57.698;11.946;2023-07-22T09:50:46;23.60;42.30
13440;DHT22;6792;57.698;11.946;2023-07-22T09:53:17;23.60;42.20
13440;DHT22;6792;57.698;11.946;2023-07-22T09:55:46;23.60;42.30
13440;DHT22;6792;57.698;11.946;2023-07-22T09:58:15;23.70;42.30
13440;DHT22;6792;57.698;11.946;2023-07-22T10:00:47;23.70;42.20
13440;DHT22;6792;57.698;11.946;2023-07-22T10:03:22;23.80;42.30
13440;DHT22;6792;57.698;11.946;2023-07-22T10:05:52;23.90;42.40
13440;DHT22;6792;57.698;11.946;2023-07-22T10:08:22;23.90;42.40
13440;DHT22;6792;57.698;11.946;2023-07-22T10:10:54;23.90;42.50
13440;DHT22;6792;57.698;11.946;2023-07-22T10:13:26;23.90;42.50
13440;DHT22;6792;57.698;11.946;2023-07-22T10:15:55;23.90;42.50
13440;DHT22;6792;57.698;11.946;2023-07-22T10:18:25;23.90;42.40
13440;DHT22;6792;57.698;11.946;2023-07-22T10:20:56;24.00;42.30
13440;DHT22;6792;57.698;11.946;2023-07-22T10:23:27;24.00;42.30
13440;DHT22;6792;57.698;11.946;2023-07-22T10:25:58;24.00;42.40
13440;DHT22;6792;57.698;11.946;2023-07-22T10:28:27;24.00;41.90
13440;DHT22;6792;57.698;11.946;2023-07-22T10:30:57;24.00;42.50
13440;DHT22;6792;57.698;11.946;2023-07-22T10:33:27;23.90;42.30
13440;DHT22;6792;57.698;11.946;2023-07-22T10:36:06;23.90;42.40
13440;DHT22;6792;57.698;11.946;2023-07-22T10:38:35;23.90;42.40
13440;DHT22;6792;57.698;11.946;2023-07-22T10:41:14;24.00;42.40
13440;DHT22;6792;57.698;11.946;2023-07-22T10:43:53;24.00;41.50
13440;DHT22;6792;57.698;11.946;2023-07-22T10:46:33;24.10;42.00
13440;DHT22;6792;57.698;11.946;2023-07-22T10:49:10;24.10;41.20
13440;DHT22;6792;57.698;11.946;2023-07-22T10:51:41;24.10;41.10
13440;DHT22;6792;57.698;11.946;2023-07-22T10:54:14;24.10;41.70
13440;DHT22;6792;57.698;11.946;2023-07-22T10:56:44;24.10;41.70
13440;DHT22;6792;57.698;11.946;2023-07-22T10:59:14;24.10;41.80
13440;DHT22;6792;57.698;11.946;2023-07-22T11:01:45;24.20;41.90
13440;DHT22;6792;57.698;11.946;2023-07-22T11:04:22;24.10;41.20
13440;DHT22;6792;57.698;11.946;2023-07-22T11:06:55;24.20;41.70
13440;DHT22;6792;57.698;11.946;2023-07-22T11:09:39;24.10;41.80
13440;DHT22;6792;57.698;11.946;2023-07-22T11:12:12;24.10;41.70
13440;DHT22;6792;57.698;11.946;2023-07-22T11:14:48;24.10;41.70
13440;DHT22;6792;57.698;11.946;2023-07-22T11:17:27;24.20;41.70
13440;DHT22;6792;57.698;11.946;2023-07-22T11:19:50;24.20;41.60
13440;DHT22;6792;57.698;11.946;2023-07-22T11:22:23;24.20;41.40
13440;DHT22;6792;57.698;11.946;2023-07-22T11:24:52;24.30;41.40
13440;DHT22;6792;57.698;11.946;2023-07-22T11:27:22;24.20;41.20
13440;DHT22;6792;57.698;11.946;2023-07-22T11:29:54;24.20;40.80
13440;DHT22;6792;57.698;11.946;2023-07-22T11:32:25;24.20;40.90
13440;DHT22;6792;57.698;11.946;2023-07-22T11:34:54;24.20;41.50
13440;DHT22;6792;57.698;11.946;2023-07-22T11:37:24;24.30;41.60
13440;DHT22;6792;57.698;11.946;2023-07-22T11:40:00;24.30;41.40
13440;DHT22;6792;57.698;11.946;2023-07-22T11:42:29;24.40;41.30
13440;DHT22;6792;57.698;11.946;2023-07-22T11:44:59;24.40;41.20
13440;DHT22;6792;57.698;11.946;2023-07-22T11:47:30;24.50;41.20
13440;DHT22;6792;57.698;11.946;2023-07-22T11:50:00;24.60;41.10
13440;DHT22;6792;57.698;11.946;2023-07-22T11:52:29;24.70;40.80
13440;DHT22;6792;57.698;11.946;2023-07-22T11:55:03;24.80;40.70
13440;DHT22;6792;57.698;11.946;2023-07-22T11:57:32;24.80;40.60
13440;DHT22;6792;57.698;11.946;2023-07-22T12:00:02;24.90;40.80
13440;DHT22;6792;57.698;11.946;2023-07-22T12:02:35;25.00;40.70
13440;DHT22;6792;57.698;11.946;2023-07-22T12:05:06;25.00;40.10
13440;DHT22;6792;57.698;11.946;2023-07-22T12:07:37;25.10;40.80
13440;DHT22;6792;57.698;11.946;2023-07-22T12:10:08;25.20;40.80
13440;DHT22;6792;57.698;11.946;2023-07-22T12:12:41;25.20;40.60
13440;DHT22;6792;57.698;11.946;2023-07-22T12:15:12;25.10;40.50
13440;DHT22;6792;57.698;11.946;2023-07-22T12:17:51;25.10;40.60
13440;DHT22;6792;57.698;11.946;2023-07-22T12:20:24;25.10;40.80
13440;DHT22;6792;57.698;11.946;2023-07-22T12:22:54;25.20;40.60
13440;DHT22;6792;57.698;11.946;2023-07-22T12:25:24;25.20;40.50
13440;DHT22;6792;57.698;11.946;2023-07-22T12:27:56;25.30;40.40
13440;DHT22;6792;57.698;11.946;2023-07-22T12:30:26;25.50;40.30
13440;DHT22;6792;57.698;11.946;2023-07-22T12:32:56;25.80;40.10
13440;DHT22;6792;57.698;11.946;2023-07-22T12:35:25;25.90;39.60
13440;DHT22;6792;57.698;11.946;2023-07-22T12:37:54;26.10;39.40
13440;DHT22;6792;57.698;11.946;2023-07-22T12:40:23;26.20;39.10
13440;DHT22;6792;57.698;11.946;2023-07-22T12:42:53;26.20;38.90
13440;DHT22;6792;57.698;11.946;2023-07-22T12:45:22;26.10;38.60
13440;DHT22;6792;57.698;11.946;2023-07-22T12:47:54;26.10;38.40
13440;DHT22;6792;57.698;11.946;2023-07-22T12:50:23;26.30;37.90
13440;DHT22;6792;57.698;11.946;2023-07-22T12:52:52;26.50;38.20
13440;DHT22;6792;57.698;11.946;2023-07-22T12:55:22;26.60;37.70
13440;DHT22;6792;57.698;11.946;2023-07-22T12:57:51;26.80;37.50
13440;DHT22;6792;57.698;11.946;2023-07-22T13:00:21;26.80;37.20
13440;DHT22;6792;57.698;11.946;2023-07-22T13:02:50;26.90;37.10
13440;DHT22;6792;57.698;11.946;2023-07-22T13:05:19;26.90;36.90
13440;DHT22;6792;57.698;11.946;2023-07-22T13:07:49;27.00;37.00
13440;DHT22;6792;57.698;11.946;2023-07-22T13:10:18;27.00;36.80
13440;DHT22;6792;57.698;11.946;2023-07-22T13:12:50;27.00;36.90
13440;DHT22;6792;57.698;11.946;2023-07-22T13:15:21;27.10;36.90
13440;DHT22;6792;57.698;11.946;2023-07-22T13:17:50;27.10;36.80
13440;DHT22;6792;57.698;11.946;2023-07-22T13:20:20;27.10;36.80
13440;DHT22;6792;57.698;11.946;2023-07-22T13:22:49;27.00;36.20
13440;DHT22;6792;57.698;11.946;2023-07-22T13:25:18;27.10;37.10
13440;DHT22;6792;57.698;11.946;2023-07-22T13:27:50;27.10;37.10
13440;DHT22;6792;57.698;11.946;2023-07-22T13:30:23;27.00;36.90
13440;DHT22;6792;57.698;11.946;2023-07-22T13:32:52;27.00;37.00
13440;DHT22;6792;57.698;11.946;2023-07-22T13:35:21;27.10;37.30
13440;DHT22;6792;57.698;11.946;2023-07-22T13:37:51;27.50;38.00
13440;DHT22;6792;57.698;11.946;2023-07-22T13:40:20;28.50;38.10
13440;DHT22;6792;57.698;11.946;2023-07-22T13:42:49;29.90;37.60
13440;DHT22;6792;57.698;11.946;2023-07-22T13:45:19;31.30;36.60
13440;DHT22;6792;57.698;11.946;2023-07-22T13:47:48;32.70;35.40
13440;DHT22;6792;57.698;11.946;2023-07-22T13:50:17;33.60;34.10
13440;DHT22;6792;57.698;11.946;2023-07-22T13:52:46;34.00;32.40
13440;DHT22;6792;57.698;11.946;2023-07-22T13:55:15;33.90;31.70
13440;DHT22;6792;57.698;11.946;2023-07-22T13:57:45;33.60;30.70
13440;DHT22;6792;57.698;11.946;2023-07-22T14:00:15;33.10;30.30
13440;DHT22;6792;57.698;11.946;2023-07-22T14:02:44;32.60;30.40
13440;DHT22;6792;57.698;11.946;2023-07-22T14:05:13;32.40;30.40
13440;DHT22;6792;57.698;11.946;2023-07-22T14:07:43;32.80;31.70
13440;DHT22;6792;57.698;11.946;2023-07-22T14:10:12;34.00;32.20
13440;DHT22;6792;57.698;11.946;2023-07-22T14:12:43;35.10;30.00
13440;DHT22;6792;57.698;11.946;2023-07-22T14:15:12;35.20;29.30
13440;DHT22;6792;57.698;11.946;2023-07-22T14:17:41;35.00;28.80
13440;DHT22;6792;57.698;11.946;2023-07-22T14:20:12;35.10;29.20
13440;DHT22;6792;57.698;11.946;2023-07-22T14:22:43;35.30;29.00
13440;DHT22;6792;57.698;11.946;2023-07-22T14:25:12;35.30;28.50
13440;DHT22;6792;57.698;11.946;2023-07-22T14:27:42;34.90;28.20
13440;DHT22;6792;57.698;11.946;2023-07-22T14:30:12;34.40;27.60
13440;DHT22;6792;57.698;11.946;2023-07-22T14:32:41;33.70;28.30
13440;DHT22;6792;57.698;11.946;2023-07-22T14:35:10;33.20;28.60
13440;DHT22;6792;57.698;11.946;2023-07-22T14:37:40;32.60;28.70
13440;DHT22;6792;57.698;11.946;2023-07-22T14:40:11;32.10;29.10
13440;DHT22;6792;57.698;11.946;2023-07-22T14:42:41;31.70;29.30
13440;DHT22;6792;57.698;11.946;2023-07-22T14:45:11;31.30;29.70
13440;DHT22;6792;57.698;11.946;2023-07-22T14:47:40;30.90;30.00
13440;DHT22;6792;57.698;11.946;2023-07-22T14:50:10;30.50;30.10
13440;DHT22;6792;57.698;11.946;2023-07-22T14:52:39;30.20;30.50
13440;DHT22;6792;57.698;11.946;2023-07-22T14:55:10;30.00;30.80
13440;DHT22;6792;57.698;11.946;2023-07-22T14:57:39;29.70;31.00
13440;DHT22;6792;57.698;11.946;2023-07-22T15:00:09;29.30;31.30
13440;DHT22;6792;57.698;11.946;2023-07-22T15:02:39;29.10;31.70
13440;DHT22;6792;57.698;11.946;2023-07-22T15:05:09;29.00;31.70
13440;DHT22;6792;57.698;11.946;2023-07-22T15:07:38;28.80;31.80
13440;DHT22;6792;57.698;11.946;2023-07-22T15:10:08;28.60;31.80
13440;DHT22;6792;57.698;11.946;2023-07-22T15:12:38;28.40;31.90
13440;DHT22;6792;57.698;11.946;2023-07-22T15:15:11;28.10;32.20
13440;DHT22;6792;57.698;11.946;2023-07-22T15:17:39;27.90;32.50
13440;DHT22;6792;57.698;11.946;2023-07-22T15:20:10;27.70;32.90
13440;DHT22;6792;57.698;11.946;2023-07-22T15:22:40;27.50;33.20
13440;DHT22;6792;57.698;11.946;2023-07-22T15:25:10;27.40;33.50
13440;DHT22;6792;57.698;11.946;2023-07-22T15:27:39;27.20;33.60
13440;DHT22;6792;57.698;11.946;2023-07-22T15:30:12;27.00;33.90
13440;DHT22;6792;57.698;11.946;2023-07-22T15:32:41;26.80;34.30
13440;DHT22;6792;57.698;11.946;2023-07-22T15:35:10;26.70;34.50
13440;DHT22;6792;57.698;11.946;2023-07-22T15:37:40;26.70;34.70
13440;DHT22;6792;57.698;11.946;2023-07-22T15:40:10;26.60;34.70
13440;DHT22;6792;57.698;11.946;2023-07-22T15:42:39;26.50;34.70
13440;DHT22;6792;57.698;11.946;2023-07-22T15:45:10;26.40;34.80
13440;DHT22;6792;57.698;11.946;2023-07-22T15:47:39;26.30;34.90
13440;DHT22;6792;57.698;11.946;2023-07-22T15:50:10;26.20;34.80
13440;DHT22;6792;57.698;11.946;2023-07-22T15:52:39;26.20;35.00